sensor_id;sensor_type;location;lat;lon;timestamp;pressure;altitude;pressure_sealevel;temperature;humidity
55592;BME280;41454;53.396;-1.510;2023-01-08T00:00:15;97517.27;;;2.90;100.00
55592;BME280;41454;53.396;-1.510;2023-01-08T00:02:42;97515.56;;;2.63;100.00
55592;BME280;41454;53.396;-1.510;2023-01-08T00:05:15;97519.52;;;2.84;100.00
55592;BME280;41454;53.396;-1.510;2023-01-08T00:07:42;97530.96;;;3.13;100.00
55592;BME280;41454;53.396;-1.510;2023-01-08T00:10:10;97518.64;;;2.71;100.00
55592;BME280;41454;53.396;-1.510;2023-01-08T00:12:37;97518.01;;;2.63;100.00
55592;BME280;41454;53.396;-1.510;2023-01-08T00:15:06;97522.04;;;3.00;100.00
55592;BME280;41454;53.396;-1.510;2023-01-08T00:17:33;97523.76;;;2.86;100.00
55592;BME280;41454;53.396;-1.510;2023-01-08T00:20:01;97508.62;;;2.86;100.00
55592;BME280;41454;53.396;-1.510;2023-01-08T00:22:28;97500.70;;;2.88;100.00
55592;BME280;41454;53.396;-1.510;2023-01-08T00:24:55;97503.08;;;2.86;100.00
55592;BME280;41454;53.396;-1.510;2023-01-08T00:27:23;97511.82;;;2.81;100.00
55592;BME280;41454;53.396;-1.510;2023-01-08T00:29:51;97521.51;;;2.72;100.00
55592;BME280;41454;53.396;-1.510;2023-01-08T00:32:19;97513.26;;;3.04;100.00
55592;BME280;41454;53.396;-1.510;2023-01-08T00:34:46;97512.98;;;3.00;100.00
55592;BME280;41454;53.396;-1.510;2023-01-08T00:37:14;97526.24;;;3.11;100.00
55592;BME280;41454;53.396;-1.510;2023-01-08T00:39:40;97522.96;;;3.07;100.00
55592;BME280;41454;53.396;-1.510;2023-01-08T00:42:07;97515.72;;;3.04;100.00
55592;BME280;41454;53.396;-1.510;2023-01-08T00:44:35;97525.24;;;2.88;100.00
55592;BME280;41454;53.396;-1.510;2023-01-08T00:47:02;97516.92;;;3.22;100.00
55592;BME280;41454;53.396;-1.510;2023-01-08T00:49:30;97529.09;;;2.80;100.00
55592;BME280;41454;53.396;-1.510;2023-01-08T00:51:57;97536.77;;;3.05;100.00
55592;BME280;41454;53.396;-1.510;2023-01-08T00:54:25;97536.75;;;2.86;100.00
55592;BME280;41454;53.396;-1.510;2023-01-08T00:56:54;97536.47;;;2.88;100.00
55592;BME280;41454;53.396;-1.510;2023-01-08T00:59:21;97538.01;;;2.92;100.00
55592;BME280;41454;53.396;-1.510;2023-01-08T01:01:49;97531.87;;;2.66;100.00
55592;BME280;41454;53.396;-1.510;2023-01-08T01:04:16;97533.83;;;3.12;100.00
55592;BME280;41454;53.396;-1.510;2023-01-08T01:06:44;97527.48;;;2.58;100.00
55592;BME280;41454;53.396;-1.510;2023-01-08T01:09:11;97517.07;;;3.13;100.00
55592;BME280;41454;53.396;-1.510;2023-01-08T01:11:39;97529.46;;;2.89;100.00
55592;BME280;41454;53.396;-1.510;2023-01-08T01:14:08;97538.22;;;3.02;100.00
55592;BME280;41454;53.396;-1.510;2023-01-08T01:16:35;97533.40;;;2.89;100.00
55592;BME280;41454;53.396;-1.510;2023-01-08T01:19:02;97538.56;;;2.85;100.00
55592;BME280;41454;53.396;-1.510;2023-01-08T01:21:31;97543.58;;;2.83;100.00
55592;BME280;41454;53.396;-1.510;2023-01-08T01:24:02;97539.96;;;3.14;100.00
55592;BME280;41454;53.396;-1.510;2023-01-08T01:26:30;97535.22;;;2.80;100.00
55592;BME280;41454;53.396;-1.510;2023-01-08T01:29:04;97537.63;;;2.85;100.00
55592;BME280;41454;53.396;-1.510;2023-01-08T01:31:31;97531.39;;;2.63;100.00
55592;BME280;41454;53.396;-1.510;2023-01-08T01:34:01;97515.09;;;2.61;100.00
55592;BME280;41454;53.396;-1.510;2023-01-08T01:37:01;97517.51;;;2.57;100.00
55592;BME280;41454;53.396;-1.510;2023-01-08T01:39:28;97517.73;;;2.66;100.00
55592;BME280;41454;53.396;-1.510;2023-01-08T01:41:55;97505.90;;;2.98;100.00
55592;BME280;41454;53.396;-1.510;2023-01-08T01:44:41;97507.71;;;2.27;100.00
55592;BME280;41454;53.396;-1.510;2023-01-08T01:47:15;97512.61;;;3.21;100.00
55592;BME280;41454;53.396;-1.510;2023-01-08T01:49:51;97523.87;;;3.16;100.00
55592;BME280;41454;53.396;-1.510;2023-01-08T01:52:20;97522.54;;;3.17;100.00
55592;BME280;41454;53.396;-1.510;2023-01-08T01:54:48;97520.71;;;2.90;100.00
55592;BME280;41454;53.396;-1.510;2023-01-08T01:57:15;97520.46;;;2.83;100.00
55592;BME280;41454;53.396;-1.510;2023-01-08T01:59:44;97519.67;;;3.08;100.00
55592;BME280;41454;53.396;-1.510;2023-01-08T02:02:11;97521.33;;;2.83;100.00
55592;BME280;41454;53.396;-1.510;2023-01-08T02:04:39;97529.14;;;2.82;100.00
55592;BME280;41454;53.396;-1.510;2023-01-08T02:07:10;97524.93;;;3.11;100.00
55592;BME280;41454;53.396;-1.510;2023-01-08T02:09:46;97529.38;;;2.70;100.00
55592;BME280;41454;53.396;-1.510;2023-01-08T02:12:18;97514.92;;;3.00;100.00
55592;BME280;41454;53.396;-1.510;2023-01-08T02:14:57;97508.29;;;3.03;100.00
55592;BME280;41454;53.396;-1.510;2023-01-08T02:17:33;97510.00;;;2.83;100.00
55592;BME280;41454;53.396;-1.510;2023-01-08T02:20:08;97513.01;;;2.99;100.00
55592;BME280;41454;53.396;-1.510;2023-01-08T02:22:45;97507.02;;;2.83;100.00
55592;BME280;41454;53.396;-1.510;2023-01-08T02:25:18;97507.51;;;2.98;100.00
55592;BME280;41454;53.396;-1.510;2023-01-08T02:27:50;97514.93;;;2.92;100.00
55592;BME280;41454;53.396;-1.510;2023-01-08T02:30:18;97501.01;;;3.01;100.00
55592;BME280;41454;53.396;-1.510;2023-01-08T02:32:46;97519.08;;;3.06;100.00
55592;BME280;41454;53.396;-1.510;2023-01-08T02:35:13;97521.37;;;2.93;100.00
55592;BME280;41454;53.396;-1.510;2023-01-08T02:37:40;97524.42;;;2.91;100.00
55592;BME280;41454;53.396;-1.510;2023-01-08T02:40:15;97516.38;;;3.12;100.00
55592;BME280;41454;53.396;-1.510;2023-01-08T02:42:48;97524.20;;;3.12;100.00
55592;BME280;41454;53.396;-1.510;2023-01-08T02:45:28;97523.08;;;3.07;100.00
55592;BME280;41454;53.396;-1.510;2023-01-08T02:48:03;97530.88;;;3.04;100.00
55592;BME280;41454;53.396;-1.510;2023-01-08T02:50:37;97526.00;;;3.11;100.00
55592;BME280;41454;53.396;-1.510;2023-01-08T02:53:11;97534.09;;;3.23;100.00
55592;BME280;41454;53.396;-1.510;2023-01-08T02:55:41;97531.43;;;3.35;100.00
55592;BME280;41454;53.396;-1.510;2023-01-08T02:58:11;97519.42;;;2.98;100.00
55592;BME280;41454;53.396;-1.510;2023-01-08T03:00:40;97524.71;;;3.17;100.00
55592;BME280;41454;53.396;-1.510;2023-01-08T03:03:11;97520.57;;;2.77;100.00
55592;BME280;41454;53.396;-1.510;2023-01-08T03:05:42;97515.72;;;3.38;100.00
55592;BME280;41454;53.396;-1.510;2023-01-08T03:08:11;97523.39;;;2.96;100.00
55592;BME280;41454;53.396;-1.510;2023-01-08T03:10:41;97521.49;;;2.75;100.00
55592;BME280;41454;53.396;-1.510;2023-01-08T03:13:13;97520.55;;;2.82;100.00
55592;BME280;41454;53.396;-1.510;2023-01-08T03:15:45;97529.34;;;2.82;100.00
55592;BME280;41454;53.396;-1.510;2023-01-08T03:18:19;97517.12;;;3.21;100.00
55592;BME280;41454;53.396;-1.510;2023-01-08T03:20:48;97524.85;;;2.89;100.00
55592;BME280;41454;53.396;-1.510;2023-01-08T03:23:18;97521.35;;;3.04;100.00
55592;BME280;41454;53.396;-1.510;2023-01-08T03:25:48;97523.13;;;3.12;100.00
55592;BME280;41454;53.396;-1.510;2023-01-08T03:28:20;97521.33;;;3.02;100.00
55592;BME280;41454;53.396;-1.510;2023-01-08T03:30:49;97527.02;;;2.79;100.00
55592;BME280;41454;53.396;-1.510;2023-01-08T03:33:19;97526.97;;;2.96;100.00
55592;BME280;41454;53.396;-1.510;2023-01-08T03:35:50;97522.26;;;3.21;100.00
55592;BME280;41454;53.396;-1.510;2023-01-08T03:38:22;97519.22;;;3.01;100.00
55592;BME280;41454;53.396;-1.510;2023-01-08T03:40:52;97533.25;;;2.98;100.00
55592;BME280;41454;53.396;-1.510;2023-01-08T03:43:21;97530.35;;;2.83;100.00
55592;BME280;41454;53.396;-1.510;2023-01-08T03:45:52;97530.08;;;2.88;100.00
55592;BME280;41454;53.396;-1.510;2023-01-08T03:48:22;97533.20;;;3.30;100.00
55592;BME280;41454;53.396;-1.510;2023-01-08T03:50:50;97528.35;;;3.10;100.00
55592;BME280;41454;53.396;-1.510;2023-01-08T03:53:18;97535.09;;;3.26;100.00
55592;BME280;41454;53.396;-1.510;2023-01-08T03:55:45;97530.74;;;3.24;100.00
55592;BME280;41454;53.396;-1.510;2023-01-08T03:58:12;97529.76;;;3.01;100.00
55592;BME280;41454;53.396;-1.510;2023-01-08T04:00:40;97527.40;;;3.35;100.00
55592;BME280;41454;53.396;-1.510;2023-01-08T04:03:08;97529.76;;;3.12;100.00
55592;BME280;41454;53.396;-1.510;2023-01-08T04:05:35;97530.24;;;2.95;100.00
55592;BME280;41454;53.396;-1.510;2023-01-08T04:08:03;97534.71;;;2.94;100.00
55592;BME280;41454;53.396;-1.510;2023-01-08T04:10:30;97530.19;;;3.15;100.00
55592;BME280;41454;53.396;-1.510;2023-01-08T04:12:57;97537.51;;;3.06;100.00
55592;BME280;41454;53.396;-1.510;2023-01-08T04:15:25;97537.36;;;2.72;100.00
55592;BME280;41454;53.396;-1.510;2023-01-08T04:17:53;97543.89;;;3.11;100.00
55592;BME280;41454;53.396;-1.510;2023-01-08T04:20:20;97532.54;;;2.94;100.00
55592;BME280;41454;53.396;-1.510;2023-01-08T04:22:48;97541.72;;;2.95;100.00
55592;BME280;41454;53.396;-1.510;2023-01-08T04:25:15;97538.89;;;2.78;100.00
55592;BME280;41454;53.396;-1.510;2023-01-08T04:27:42;97536.65;;;2.99;100.00
55592;BME280;41454;53.396;-1.510;2023-01-08T04:30:10;97529.85;;;2.86;100.00
55592;BME280;41454;53.396;-1.510;2023-01-08T04:32:37;97536.07;;;3.03;100.00
55592;BME280;41454;53.396;-1.510;2023-01-08T04:35:05;97520.88;;;2.97;100.00
55592;BME280;41454;53.396;-1.510;2023-01-08T04:37:32;97520.35;;;2.94;100.00
55592;BME280;41454;53.396;-1.510;2023-01-08T04:39:59;97516.61;;;3.31;100.00
55592;BME280;41454;53.396;-1.510;2023-01-08T04:42:26;97520.10;;;2.73;100.00
55592;BME280;41454;53.396;-1.510;2023-01-08T04:44:54;97525.14;;;2.97;100.00
55592;BME280;41454;53.396;-1.510;2023-01-08T04:47:21;97530.33;;;2.94;100.00
55592;BME280;41454;53.396;-1.510;2023-01-08T04:49:55;97537.10;;;2.48;100.00
55592;BME280;41454;53.396;-1.510;2023-01-08T04:52:22;97536.58;;;2.61;100.00
55592;BME280;41454;53.396;-1.510;2023-01-08T04:54:49;97537.52;;;2.82;100.00
55592;BME280;41454;53.396;-1.510;2023-01-08T04:57:17;97540.21;;;2.99;100.00
55592;BME280;41454;53.396;-1.510;2023-01-08T04:59:44;97550.41;;;2.75;100.00
55592;BME280;41454;53.396;-1.510;2023-01-08T05:02:12;97549.37;;;2.83;100.00
55592;BME280;41454;53.396;-1.510;2023-01-08T05:04:39;97550.51;;;2.92;100.00
55592;BME280;41454;53.396;-1.510;2023-01-08T05:07:07;97557.00;;;2.75;100.00
55592;BME280;41454;53.396;-1.510;2023-01-08T05:09:35;97561.52;;;2.56;100.00
55592;BME280;41454;53.396;-1.510;2023-01-08T05:12:03;97560.33;;;2.76;100.00
55592;BME280;41454;53.396;-1.510;2023-01-08T05:14:30;97553.15;;;2.48;100.00
55592;BME280;41454;53.396;-1.510;2023-01-08T05:16:56;97553.06;;;2.42;100.00
55592;BME280;41454;53.396;-1.510;2023-01-08T05:19:23;97553.88;;;2.96;100.00
55592;BME280;41454;53.396;-1.510;2023-01-08T05:21:51;97549.86;;;2.91;100.00
55592;BME280;41454;53.396;-1.510;2023-01-08T05:24:18;97550.86;;;2.37;100.00
55592;BME280;41454;53.396;-1.510;2023-01-08T05:26:46;97544.09;;;2.74;100.00
55592;BME280;41454;53.396;-1.510;2023-01-08T05:29:13;97546.35;;;2.55;100.00
55592;BME280;41454;53.396;-1.510;2023-01-08T05:31:41;97547.87;;;2.99;100.00
55592;BME280;41454;53.396;-1.510;2023-01-08T05:34:08;97546.94;;;2.33;100.00
55592;BME280;41454;53.396;-1.510;2023-01-08T05:36:35;97553.27;;;2.68;100.00
55592;BME280;41454;53.396;-1.510;2023-01-08T05:39:03;97549.88;;;2.85;100.00
55592;BME280;41454;53.396;-1.510;2023-01-08T05:41:30;97554.75;;;2.63;100.00
55592;BME280;41454;53.396;-1.510;2023-01-08T05:43:58;97559.22;;;2.93;100.00
55592;BME280;41454;53.396;-1.510;2023-01-08T05:46:26;97551.62;;;2.73;100.00
55592;BME280;41454;53.396;-1.510;2023-01-08T05:48:53;97556.93;;;2.77;100.00
55592;BME280;41454;53.396;-1.510;2023-01-08T05:51:20;97556.41;;;2.80;100.00
55592;BME280;41454;53.396;-1.510;2023-01-08T05:53:48;97552.32;;;2.72;100.00
55592;BME280;41454;53.396;-1.510;2023-01-08T05:56:15;97553.67;;;2.76;100.00
55592;BME280;41454;53.396;-1.510;2023-01-08T05:58:43;97555.90;;;3.17;100.00
55592;BME280;41454;53.396;-1.510;2023-01-08T06:01:12;97558.07;;;2.59;100.00
55592;BME280;41454;53.396;-1.510;2023-01-08T06:03:40;97557.36;;;2.66;100.00
55592;BME280;41454;53.396;-1.510;2023-01-08T06:06:08;97554.53;;;2.70;100.00
55592;BME280;41454;53.396;-1.510;2023-01-08T06:08:36;97558.67;;;2.54;100.00
55592;BME280;41454;53.396;-1.510;2023-01-08T06:11:05;97568.36;;;2.43;100.00
55592;BME280;41454;53.396;-1.510;2023-01-08T06:13:34;97578.21;;;1.93;100.00
55592;BME280;41454;53.396;-1.510;2023-01-08T06:16:02;97575.46;;;2.25;100.00
55592;BME280;41454;53.396;-1.510;2023-01-08T06:18:29;97579.07;;;2.37;100.00
55592;BME280;41454;53.396;-1.510;2023-01-08T06:20:57;97577.71;;;2.53;100.00
55592;BME280;41454;53.396;-1.510;2023-01-08T06:23:25;97581.99;;;2.75;100.00
55592;BME280;41454;53.396;-1.510;2023-01-08T06:25:53;97582.11;;;2.34;100.00
55592;BME280;41454;53.396;-1.510;2023-01-08T06:28:21;97573.77;;;3.14;100.00
55592;BME280;41454;53.396;-1.510;2023-01-08T06:30:49;97570.73;;;3.26;100.00
55592;BME280;41454;53.396;-1.510;2023-01-08T06:33:17;97579.26;;;2.75;100.00
55592;BME280;41454;53.396;-1.510;2023-01-08T06:35:44;97584.39;;;3.50;100.00
55592;BME280;41454;53.396;-1.510;2023-01-08T06:38:11;97581.27;;;3.33;100.00
55592;BME280;41454;53.396;-1.510;2023-01-08T06:40:39;97582.90;;;3.50;100.00
55592;BME280;41454;53.396;-1.510;2023-01-08T06:43:06;97582.47;;;3.01;100.00
55592;BME280;41454;53.396;-1.510;2023-01-08T06:45:34;97587.16;;;2.75;100.00
55592;BME280;41454;53.396;-1.510;2023-01-08T06:48:03;97586.61;;;2.52;100.00
55592;BME280;41454;53.396;-1.510;2023-01-08T06:50:31;97585.02;;;2.83;100.00
55592;BME280;41454;53.396;-1.510;2023-01-08T06:52:58;97586.38;;;3.53;100.00
55592;BME280;41454;53.396;-1.510;2023-01-08T06:55:27;97596.76;;;3.57;100.00
55592;BME280;41454;53.396;-1.510;2023-01-08T06:57:54;97595.40;;;3.82;100.00
55592;BME280;41454;53.396;-1.510;2023-01-08T07:00:21;97595.26;;;4.02;100.00
55592;BME280;41454;53.396;-1.510;2023-01-08T07:02:49;97590.52;;;4.38;100.00
55592;BME280;41454;53.396;-1.510;2023-01-08T07:05:16;97596.85;;;4.83;100.00
55592;BME280;41454;53.396;-1.510;2023-01-08T07:07:44;97601.15;;;4.54;100.00
55592;BME280;41454;53.396;-1.510;2023-01-08T07:10:11;97594.49;;;4.67;100.00
55592;BME280;41454;53.396;-1.510;2023-01-08T07:12:39;97591.32;;;4.56;100.00
55592;BME280;41454;53.396;-1.510;2023-01-08T07:15:06;97590.98;;;5.32;100.00
55592;BME280;41454;53.396;-1.510;2023-01-08T07:17:34;97579.23;;;4.55;100.00
55592;BME280;41454;53.396;-1.510;2023-01-08T07:20:02;97579.16;;;4.60;100.00
55592;BME280;41454;53.396;-1.510;2023-01-08T07:22:29;97578.20;;;3.83;100.00
55592;BME280;41454;53.396;-1.510;2023-01-08T07:24:56;97577.00;;;4.26;100.00
55592;BME280;41454;53.396;-1.510;2023-01-08T07:27:23;97585.45;;;4.10;100.00
55592;BME280;41454;53.396;-1.510;2023-01-08T07:29:51;97588.32;;;4.21;100.00
55592;BME280;41454;53.396;-1.510;2023-01-08T07:32:18;97589.32;;;3.89;100.00
55592;BME280;41454;53.396;-1.510;2023-01-08T07:34:46;97591.09;;;3.91;100.00
55592;BME280;41454;53.396;-1.510;2023-01-08T07:37:13;97601.13;;;3.52;100.00
55592;BME280;41454;53.396;-1.510;2023-01-08T07:39:41;97607.37;;;2.66;100.00
55592;BME280;41454;53.396;-1.510;2023-01-08T07:42:08;97613.41;;;2.77;100.00
55592;BME280;41454;53.396;-1.510;2023-01-08T07:44:35;97619.86;;;2.70;100.00
55592;BME280;41454;53.396;-1.510;2023-01-08T07:47:03;97615.42;;;2.81;100.00
55592;BME280;41454;53.396;-1.510;2023-01-08T07:49:30;97621.17;;;2.11;100.00
55592;BME280;41454;53.396;-1.510;2023-01-08T07:51:58;97621.59;;;2.48;100.00
55592;BME280;41454;53.396;-1.510;2023-01-08T07:54:24;97618.70;;;2.59;100.00
55592;BME280;41454;53.396;-1.510;2023-01-08T07:56:53;97611.31;;;2.87;100.00
55592;BME280;41454;53.396;-1.510;2023-01-08T07:59:19;97599.69;;;3.05;100.00
55592;BME280;41454;53.396;-1.510;2023-01-08T08:01:46;97597.69;;;3.22;100.00
55592;BME280;41454;53.396;-1.510;2023-01-08T08:04:14;97594.47;;;4.22;100.00
55592;BME280;41454;53.396;-1.510;2023-01-08T08:06:41;97589.89;;;4.77;100.00
55592;BME280;41454;53.396;-1.510;2023-01-08T08:09:09;97581.12;;;5.25;100.00
55592;BME280;41454;53.396;-1.510;2023-01-08T08:11:36;97575.96;;;5.17;100.00
55592;BME280;41454;53.396;-1.510;2023-01-08T08:14:04;97571.55;;;5.71;100.00
55592;BME280;41454;53.396;-1.510;2023-01-08T08:16:31;97575.07;;;5.17;100.00
55592;BME280;41454;53.396;-1.510;2023-01-08T08:18:59;97564.75;;;5.57;100.00
55592;BME280;41454;53.396;-1.510;2023-01-08T08:21:27;97564.11;;;5.47;100.00
55592;BME280;41454;53.396;-1.510;2023-01-08T08:23:54;97558.66;;;4.54;100.00
55592;BME280;41454;53.396;-1.510;2023-01-08T08:26:22;97562.74;;;4.05;100.00
55592;BME280;41454;53.396;-1.510;2023-01-08T08:28:49;97556.82;;;4.29;100.00
55592;BME280;41454;53.396;-1.510;2023-01-08T08:31:17;97555.17;;;4.20;100.00
55592;BME280;41454;53.396;-1.510;2023-01-08T08:33:44;97546.03;;;4.45;100.00
55592;BME280;41454;53.396;-1.510;2023-01-08T08:36:12;97546.04;;;4.23;100.00
55592;BME280;41454;53.396;-1.510;2023-01-08T08:38:39;97541.59;;;3.60;100.00
55592;BME280;41454;53.396;-1.510;2023-01-08T08:41:07;97534.82;;;3.80;100.00
55592;BME280;41454;53.396;-1.510;2023-01-08T08:43:34;97549.16;;;3.62;100.00
55592;BME280;41454;53.396;-1.510;2023-01-08T08:46:02;97546.85;;;4.45;100.00
55592;BME280;41454;53.396;-1.510;2023-01-08T08:48:30;97534.67;;;4.38;100.00
55592;BME280;41454;53.396;-1.510;2023-01-08T08:50:57;97523.75;;;5.02;100.00
55592;BME280;41454;53.396;-1.510;2023-01-08T08:53:25;97519.98;;;5.01;100.00
55592;BME280;41454;53.396;-1.510;2023-01-08T08:55:52;97514.71;;;4.45;100.00
55592;BME280;41454;53.396;-1.510;2023-01-08T08:58:20;97516.11;;;4.22;100.00
55592;BME280;41454;53.396;-1.510;2023-01-08T09:00:47;97525.17;;;4.15;100.00
55592;BME280;41454;53.396;-1.510;2023-01-08T09:03:15;97523.72;;;3.87;100.00
55592;BME280;41454;53.396;-1.510;2023-01-08T09:05:42;97525.02;;;3.75;100.00
55592;BME280;41454;53.396;-1.510;2023-01-08T09:08:10;97521.92;;;3.72;100.00
55592;BME280;41454;53.396;-1.510;2023-01-08T09:10:37;97516.07;;;3.37;100.00
55592;BME280;41454;53.396;-1.510;2023-01-08T09:13:05;97503.74;;;3.51;100.00
55592;BME280;41454;53.396;-1.510;2023-01-08T09:15:33;97516.34;;;3.33;100.00
55592;BME280;41454;53.396;-1.510;2023-01-08T09:18:01;97510.53;;;4.01;100.00
55592;BME280;41454;53.396;-1.510;2023-01-08T09:20:29;97503.58;;;3.40;100.00
55592;BME280;41454;53.396;-1.510;2023-01-08T09:22:57;97506.92;;;3.21;100.00
55592;BME280;41454;53.396;-1.510;2023-01-08T09:25:25;97492.59;;;3.42;100.00
55592;BME280;41454;53.396;-1.510;2023-01-08T09:27:58;97486.83;;;3.46;100.00
55592;BME280;41454;53.396;-1.510;2023-01-08T09:30:25;97478.74;;;2.99;100.00
55592;BME280;41454;53.396;-1.510;2023-01-08T09:32:56;97482.37;;;2.92;100.00
55592;BME280;41454;53.396;-1.510;2023-01-08T09:35:24;97476.62;;;2.60;100.00
55592;BME280;41454;53.396;-1.510;2023-01-08T09:37:51;97466.02;;;2.28;100.00
55592;BME280;41454;53.396;-1.510;2023-01-08T09:40:21;97470.39;;;2.77;100.00
55592;BME280;41454;53.396;-1.510;2023-01-08T09:42:56;97470.65;;;2.92;100.00
55592;BME280;41454;53.396;-1.510;2023-01-08T09:45:27;97466.68;;;3.04;100.00
55592;BME280;41454;53.396;-1.510;2023-01-08T09:47:58;97461.63;;;3.24;100.00
55592;BME280;41454;53.396;-1.510;2023-01-08T09:50:28;97457.33;;;3.85;100.00
55592;BME280;41454;53.396;-1.510;2023-01-08T09:52:56;97451.32;;;3.39;100.00
55592;BME280;41454;53.396;-1.510;2023-01-08T09:55:24;97464.86;;;3.58;100.00
55592;BME280;41454;53.396;-1.510;2023-01-08T09:57:51;97469.55;;;4.03;100.00
55592;BME280;41454;53.396;-1.510;2023-01-08T10:00:28;97473.27;;;3.64;100.00
55592;BME280;41454;53.396;-1.510;2023-01-08T10:02:57;97458.80;;;3.37;100.00
55592;BME280;41454;53.396;-1.510;2023-01-08T10:05:25;97458.08;;;4.24;100.00
55592;BME280;41454;53.396;-1.510;2023-01-08T10:07:53;97456.47;;;3.87;100.00
55592;BME280;41454;53.396;-1.510;2023-01-08T10:10:23;97456.77;;;3.40;100.00
55592;BME280;41454;53.396;-1.510;2023-01-08T10:12:52;97449.39;;;3.64;100.00
55592;BME280;41454;53.396;-1.510;2023-01-08T10:15:21;97450.61;;;3.59;100.00
55592;BME280;41454;53.396;-1.510;2023-01-08T10:17:55;97454.34;;;3.60;100.00
55592;BME280;41454;53.396;-1.510;2023-01-08T10:20:25;97439.77;;;3.42;100.00
55592;BME280;41454;53.396;-1.510;2023-01-08T10:22:53;97433.47;;;3.34;100.00
55592;BME280;41454;53.396;-1.510;2023-01-08T10:25:23;97431.92;;;3.64;100.00
55592;BME280;41454;53.396;-1.510;2023-01-08T10:27:52;97433.84;;;3.05;100.00
55592;BME280;41454;53.396;-1.510;2023-01-08T10:30:22;97441.00;;;2.82;100.00
55592;BME280;41454;53.396;-1.510;2023-01-08T10:32:56;97443.30;;;3.01;100.00
55592;BME280;41454;53.396;-1.510;2023-01-08T10:35:32;97438.95;;;3.27;100.00
55592;BME280;41454;53.396;-1.510;2023-01-08T10:38:00;97430.76;;;3.48;100.00
55592;BME280;41454;53.396;-1.510;2023-01-08T10:40:34;97421.88;;;3.16;100.00
55592;BME280;41454;53.396;-1.510;2023-01-08T10:43:06;97413.67;;;3.73;100.00
55592;BME280;41454;53.396;-1.510;2023-01-08T10:45:34;97407.54;;;4.17;100.00
55592;BME280;41454;53.396;-1.510;2023-01-08T10:48:05;97403.22;;;3.80;100.00
55592;BME280;41454;53.396;-1.510;2023-01-08T10:50:34;97408.80;;;3.53;100.00
55592;BME280;41454;53.396;-1.510;2023-01-08T10:53:02;97392.77;;;3.86;100.00
55592;BME280;41454;53.396;-1.510;2023-01-08T10:55:32;97375.24;;;4.41;100.00
55592;BME280;41454;53.396;-1.510;2023-01-08T10:58:01;97377.77;;;4.22;100.00
55592;BME280;41454;53.396;-1.510;2023-01-08T11:00:31;97370.23;;;4.18;100.00
55592;BME280;41454;53.396;-1.510;2023-01-08T11:03:00;97375.08;;;4.59;100.00
55592;BME280;41454;53.396;-1.510;2023-01-08T11:05:30;97374.41;;;3.61;100.00
55592;BME280;41454;53.396;-1.510;2023-01-08T11:07:59;97364.30;;;4.21;100.00
55592;BME280;41454;53.396;-1.510;2023-01-08T11:10:28;97360.52;;;3.70;100.00
55592;BME280;41454;53.396;-1.510;2023-01-08T11:12:57;97353.42;;;3.81;100.00
55592;BME280;41454;53.396;-1.510;2023-01-08T11:15:30;97352.31;;;4.49;100.00
55592;BME280;41454;53.396;-1.510;2023-01-08T11:18:18;97342.55;;;3.95;100.00
55592;BME280;41454;53.396;-1.510;2023-01-08T11:20:46;97339.76;;;3.97;100.00
55592;BME280;41454;53.396;-1.510;2023-01-08T11:23:17;97335.44;;;4.23;100.00
55592;BME280;41454;53.396;-1.510;2023-01-08T11:25:50;97322.31;;;4.25;100.00
55592;BME280;41454;53.396;-1.510;2023-01-08T11:28:26;97319.96;;;3.76;100.00
55592;BME280;41454;53.396;-1.510;2023-01-08T11:31:03;97311.49;;;4.06;100.00
55592;BME280;41454;53.396;-1.510;2023-01-08T11:33:32;97302.28;;;3.40;100.00
55592;BME280;41454;53.396;-1.510;2023-01-08T11:36:09;97291.97;;;4.00;100.00
55592;BME280;41454;53.396;-1.510;2023-01-08T11:38:37;97282.89;;;3.53;100.00
55592;BME280;41454;53.396;-1.510;2023-01-08T11:41:16;97276.87;;;4.33;100.00
55592;BME280;41454;53.396;-1.510;2023-01-08T11:44:01;97272.41;;;3.91;100.00
55592;BME280;41454;53.396;-1.510;2023-01-08T11:46:34;97261.52;;;4.31;100.00
55592;BME280;41454;53.396;-1.510;2023-01-08T11:49:19;97256.01;;;4.48;100.00
55592;BME280;41454;53.396;-1.510;2023-01-08T11:52:01;97248.05;;;4.28;100.00
55592;BME280;41454;53.396;-1.510;2023-01-08T11:54:41;97239.15;;;3.62;100.00
55592;BME280;41454;53.396;-1.510;2023-01-08T11:57:20;97227.84;;;4.15;100.00
55592;BME280;41454;53.396;-1.510;2023-01-08T11:59:59;97222.80;;;4.91;100.00
55592;BME280;41454;53.396;-1.510;2023-01-08T12:02:38;97216.30;;;4.67;100.00
55592;BME280;41454;53.396;-1.510;2023-01-08T12:05:23;97213.02;;;4.95;100.00
55592;BME280;41454;53.396;-1.510;2023-01-08T12:07:58;97214.81;;;4.97;100.00
55592;BME280;41454;53.396;-1.510;2023-01-08T12:10:32;97209.35;;;4.75;100.00
55592;BME280;41454;53.396;-1.510;2023-01-08T12:13:11;97209.23;;;4.30;100.00
55592;BME280;41454;53.396;-1.510;2023-01-08T12:15:50;97190.11;;;4.61;100.00
55592;BME280;41454;53.396;-1.510;2023-01-08T12:18:34;97188.69;;;4.61;100.00
55592;BME280;41454;53.396;-1.510;2023-01-08T12:21:10;97176.10;;;4.24;100.00
55592;BME280;41454;53.396;-1.510;2023-01-08T12:23:53;97165.95;;;4.77;100.00
55592;BME280;41454;53.396;-1.510;2023-01-08T12:26:28;97156.92;;;4.64;100.00
55592;BME280;41454;53.396;-1.510;2023-01-08T12:29:16;97152.81;;;4.64;100.00
55592;BME280;41454;53.396;-1.510;2023-01-08T12:32:01;97152.33;;;4.94;100.00
55592;BME280;41454;53.396;-1.510;2023-01-08T12:34:42;97149.35;;;3.89;100.00
55592;BME280;41454;53.396;-1.510;2023-01-08T12:37:14;97143.78;;;4.39;100.00
55592;BME280;41454;53.396;-1.510;2023-01-08T12:39:48;97141.46;;;4.50;100.00
55592;BME280;41454;53.396;-1.510;2023-01-08T12:42:19;97140.19;;;4.36;100.00
55592;BME280;41454;53.396;-1.510;2023-01-08T12:44:48;97136.52;;;4.22;100.00
55592;BME280;41454;53.396;-1.510;2023-01-08T12:47:21;97136.67;;;4.95;100.00
55592;BME280;41454;53.396;-1.510;2023-01-08T12:49:51;97124.72;;;5.23;100.00
55592;BME280;41454;53.396;-1.510;2023-01-08T12:52:27;97129.44;;;4.76;100.00
55592;BME280;41454;53.396;-1.510;2023-01-08T12:55:00;97126.71;;;4.53;100.00
55592;BME280;41454;53.396;-1.510;2023-01-08T12:57:32;97119.56;;;4.70;100.00
55592;BME280;41454;53.396;-1.510;2023-01-08T13:00:04;97115.44;;;4.23;100.00
55592;BME280;41454;53.396;-1.510;2023-01-08T13:02:42;97109.24;;;4.16;100.00